Seattle, WA

6:34 AM PDT on April 30, 2017 (GMT -0700)
First Hill | | Change Station

Elev 330 ft 47.61 °N, 122.32 °W | Updated 22 seconds ago

Overcast
Overcast
47.0 °F
Feels Like 47 °F
N
1.4
Wind Variable Wind from SW

Today
High -- | Low -- °F
--% Chance of Precip.
Yesterday
High -- | Low -- °F
Precip. -- in
Pressure 30.18 in
Visibility 10.0 miles
Clouds Overcast 2000 ft
Windchill 47 °F
Dew Point 43 °F
Humidity 87%
Rainfall 0.04 in
Snow Depth Not available.
5:53 AM 8:20 PM
Waxing Crescent, 23% visible
METAR KBFI 301253Z 20005KT 10SM OVC020 09/07 A3018 RMK AO2 SLP220 T00890072 $
Pressure 30.18 in
Visibility 10.0 miles
Clouds Overcast 2000 ft
Windchill 47 °F
Dew Point 43 °F
Humidity 87%
Rainfall 0.04 in
Snow Depth Not available.
5:53 AM 8:20 PM
Waxing Crescent, 23% visible
METAR KBFI 301253Z 20005KT 10SM OVC020 09/07 A3018 RMK AO2 SLP220 T00890072 $

Get Severe Weather Alerts

Thanks for signing up!

Be on the lookout for a verification email in your inbox.

You'll start receiving the daily forecast at 8 AM.

×

10-Day Weather Forecast

Almanac

Astronomy

Apr. 30, 2017 Rise Set
Actual Time
Civil Twilight
Nautical Twilight
Astronomical Twilight
Moon
Length of Visible Light
Length of Day
Tomorrow will be .
, % of the Moon is Illuminated

Today's Extremes

State Highs State Lows

Community

WunderPhotos

WunderBlog® & News

Nearby

Air Quality

  Air Quality AQ Index Pollutant
Not available.

Snow Depth

Station Depth Elevation

Earthquake Activity

City Distance Mag. Time & Date
Minimum magnitude displayed is 2.5.

Coastal Water Temperatures

Place Temperature

Stations

Nearby Weather Stations

Station Location Temp. Windchill Dew Point Humidity Wind Precip. Elev Updated Type
                   

Watches & Warnings

There are currently no watches in effect.